Portada
METAR-TAF:

METAR-TAF

Aeropuertos :

Recife, Pernambuco, Brasil

Aeropuerto Internacional de Recife

latitud: 08-08S, longitud: 034-55W, altitud: 19 m

Observación

El informe se hizo hace 54 minutos, a las 21:00 UTC
Viento 13 kt del sur-sureste
Temperatura 26°C
Humedad 65%
Presión 1016 hPa
Visibilidad 10 km o más
Nubes dispersas a una altura de 2300 ft

METAR: SBRF 232100Z 15013KT 9999 SCT023 26/19 Q1016

Hora: 18:54 (21:54 UTC)

Pronóstico

El informe se hizo hace 5 horas y 54 minutos, a las 16:00 UTC
Pronóstico válido del 23 a las 18 UTC al 24 a las 18 UTC
Viento 11 kt del sureste
Visibilidad: 8000 m
Nubes dispersas a una altura de 2200 ft

TAF: SBRF 231600Z 2318/2418 14011KT 8000 SCT022 TN24/2408Z TX28/2415Z RMK PEA

Observaciones y pronósticos meteorológicos de más de 4000 aeropuertos (mensajes METAR y TAF).

Los puntos amarillos y rojos representan las estaciones disponibles.

Ponga el ratón en el punto deseado para ver el nombre de la estación.

Haga clic para ver las observaciones y los pronósticos meteorológicos.

Para cambiar el mapa : haga clic en los botones verdes con una cruz de color negro para hacer un zoom, en el botón verde con un guión para alejar o en las flechas verdes para mapas adyacentes.


METAR-TAF: